Time;durP1;ratioP1;P1;durP2;ratioP2;P2;SDS_P1;SDS_P2;PMS_P1;PMS_P2;Temp;Humidity;BMP_temperature;BMP_pressure;BME280_temperature;BME280_humidity;BME280_pressure;Samples;Min_cycle;Max_cycle;Signal;HPM_P1;HPM_P2
2022/08/29 00:00:58;;;;;;;10.55;6.63;;;;;;;;;;5014731;28;20588;-56
2022/08/29 00:03:26;;;;;;;8.90;7.13;;;;;;;;;;5014951;28;20205;-56
2022/08/29 00:05:55;;;;;;;8.57;6.35;;;;;;;;;;5014915;28;20224;-57
2022/08/29 00:08:23;;;;;;;10.57;6.50;;;;;;;;;;5014784;28;20217;-55
2022/08/29 00:10:50;;;;;;;11.40;6.57;;;;;;;;;;5018267;28;20216;-55
2022/08/29 00:13:17;;;;;;;13.20;6.88;;;;;;;;;;5019232;28;20205;-54
2022/08/29 00:15:44;;;;;;;11.82;6.93;;;;;;;;;;5018882;28;20206;-56
2022/08/29 00:18:14;;;;;;;13.77;6.40;;;;;;;;;;5001000;28;20212;-50
2022/08/29 00:20:41;;;;;;;11.48;7.10;;;;;;;;;;5018849;28;20206;-50
2022/08/29 00:23:09;;;;;;;9.75;6.10;;;;;;;;;;5018195;28;20221;-53
2022/08/29 00:25:36;;;;;;;10.32;6.20;;;;;;;;;;5018391;28;20209;-51
2022/08/29 00:28:04;;;;;;;9.60;6.45;;;;;;;;;;5017211;28;20646;-55
2022/08/29 00:30:31;;;;;;;8.25;6.47;;;;;;;;;;5018231;28;20224;-55
2022/08/29 00:32:58;;;;;;;13.57;6.07;;;;;;;;;;5018186;28;20201;-56
2022/08/29 00:35:29;;;;;;;11.25;6.88;;;;;;;;;;5018199;28;20212;-55
2022/08/29 00:37:57;;;;;;;10.45;6.88;;;;;;;;;;5018126;28;20324;-55
2022/08/29 00:40:30;;;;;;;12.15;6.60;;;;;;;;;;5017894;28;20276;-55
2022/08/29 00:42:57;;;;;;;9.57;6.65;;;;;;;;;;5017823;28;20190;-55
2022/08/29 00:45:24;;;;;;;9.52;6.93;;;;;;;;;;5017992;28;20275;-51
2022/08/29 00:47:56;;;;;;;7.70;6.30;;;;;;;;;;5018003;28;20532;-51
2022/08/29 00:50:39;;;;;;;9.75;6.38;;;;;;;;;;5033313;28;20308;-53
2022/08/29 00:53:12;;;;;;;10.32;6.55;;;;;;;;;;5017710;28;20208;-55
2022/08/29 00:55:39;;;;;;;8.23;6.10;;;;;;;;;;5000616;28;20645;-51
2022/08/29 00:58:11;;;;;;;7.88;6.00;;;;;;;;;;5017619;28;20201;-53
2022/08/29 01:00:42;;;;;;;7.95;6.50;;;;;;;;;;5017572;28;20200;-54
2022/08/29 01:03:09;;;;;;;10.65;6.28;;;;;;;;;;5017661;28;20205;-55
2022/08/29 01:05:36;;;;;;;9.18;6.10;;;;;;;;;;5017750;28;20297;-55
2022/08/29 01:08:04;;;;;;;7.55;5.70;;;;;;;;;;5017381;28;20206;-57
2022/08/29 01:13:21;;;;;;;8.32;5.85;;;;;;;;;;5016684;28;20596;-52
2022/08/29 01:15:49;;;;;;;7.10;5.47;;;;;;;;;;5001009;28;20259;-56
2022/08/29 01:18:17;;;;;;;8.27;6.25;;;;;;;;;;5017452;28;20201;-54
2022/08/29 01:20:59;;;;;;;11.88;5.80;;;;;;;;;;5015189;28;20716;-56
2022/08/29 01:23:41;;;;;;;7.18;5.90;;;;;;;;;;5017282;28;20201;-54
2022/08/29 01:26:10;;;;;;;8.10;5.63;;;;;;;;;;5017928;28;20328;-51
2022/08/29 01:28:41;;;;;;;8.63;5.55;;;;;;;;;;5016966;28;20263;-56
2022/08/29 01:31:14;;;;;;;12.20;5.47;;;;;;;;;;5016228;28;20216;-55
2022/08/29 01:34:02;;;;;;;8.25;5.68;;;;;;;;;;5002408;28;20225;-57
2022/08/29 01:36:41;;;;;;;7.35;5.75;;;;;;;;;;5016952;28;20642;-56
2022/08/29 01:39:09;;;;;;;9.27;5.50;;;;;;;;;;5017116;28;20245;-55
2022/08/29 01:41:35;;;;;;;8.73;5.53;;;;;;;;;;5017438;28;20202;-54
2022/08/29 01:44:11;;;;;;;8.50;5.68;;;;;;;;;;5017113;28;20209;-56
2022/08/29 01:46:39;;;;;;;7.90;5.28;;;;;;;;;;5016869;28;20205;-54
2022/08/29 01:49:08;;;;;;;8.48;5.70;;;;;;;;;;5016825;28;20615;-56
2022/08/29 01:51:36;;;;;;;9.75;5.47;;;;;;;;;;5016627;28;20577;-55
2022/08/29 01:54:07;;;;;;;7.57;5.25;;;;;;;;;;5016942;28;20232;-56
2022/08/29 01:56:37;;;;;;;8.25;6.57;;;;;;;;;;5016500;28;20642;-55
2022/08/29 01:59:07;;;;;;;9.93;5.55;;;;;;;;;;5016440;28;20224;-53
2022/08/29 02:01:37;;;;;;;9.98;5.45;;;;;;;;;;5016434;28;20589;-54
2022/08/29 02:04:05;;;;;;;8.05;6.32;;;;;;;;;;5016402;28;20228;-55
2022/08/29 02:06:33;;;;;;;10.57;6.45;;;;;;;;;;5016431;28;20216;-54
2022/08/29 02:09:00;;;;;;;8.50;6.00;;;;;;;;;;5016557;28;20533;-56
2022/08/29 02:11:27;;;;;;;8.15;5.90;;;;;;;;;;5016157;28;20197;-54
2022/08/29 02:13:57;;;;;;;7.70;5.90;;;;;;;;;;5016194;28;20228;-51
2022/08/29 02:16:26;;;;;;;7.60;5.32;;;;;;;;;;5016581;28;20205;-50
2022/08/29 02:18:54;;;;;;;6.60;4.82;;;;;;;;;;5016335;28;20216;-53
2022/08/29 02:21:23;;;;;;;7.20;5.53;;;;;;;;;;5016648;28;20531;-55
2022/08/29 02:23:51;;;;;;;8.02;4.63;;;;;;;;;;5015869;28;20622;-56
2022/08/29 02:26:19;;;;;;;6.30;4.47;;;;;;;;;;5016266;28;20263;-55
2022/08/29 02:28:48;;;;;;;5.75;4.47;;;;;;;;;;5016145;28;20209;-51
2022/08/29 02:31:15;;;;;;;6.47;4.38;;;;;;;;;;5015776;28;20685;-57
2022/08/29 02:33:42;;;;;;;7.28;4.75;;;;;;;;;;5015786;28;20201;-55
2022/08/29 02:36:09;;;;;;;7.68;4.22;;;;;;;;;;5016223;28;20209;-55
2022/08/29 02:38:36;;;;;;;7.75;4.50;;;;;;;;;;5016058;28;20245;-50
2022/08/29 02:41:04;;;;;;;5.28;4.22;;;;;;;;;;5015722;28;20266;-51
2022/08/29 02:43:32;;;;;;;7.85;4.57;;;;;;;;;;5015666;28;20224;-55
2022/08/29 02:45:59;;;;;;;6.35;4.43;;;;;;;;;;5015998;28;20205;-50
2022/08/29 02:48:26;;;;;;;6.68;4.65;;;;;;;;;;5015887;28;20554;-56
2022/08/29 02:50:55;;;;;;;6.72;4.70;;;;;;;;;;5015675;28;20244;-51
2022/08/29 02:53:28;;;;;;;7.65;4.95;;;;;;;;;;5015699;28;20205;-57
2022/08/29 02:55:55;;;;;;;7.57;5.07;;;;;;;;;;5015795;28;20194;-52
2022/08/29 02:58:23;;;;;;;5.78;4.30;;;;;;;;;;5016038;28;20263;-53
2022/08/29 03:00:50;;;;;;;6.78;4.78;;;;;;;;;;5015398;28;20532;-54
2022/08/29 03:03:18;;;;;;;6.82;4.80;;;;;;;;;;5015455;28;20213;-51
2022/08/29 03:05:45;;;;;;;5.88;4.70;;;;;;;;;;5015368;28;20211;-57
2022/08/29 03:08:13;;;;;;;5.45;4.75;;;;;;;;;;5015494;28;20213;-54
2022/08/29 03:10:41;;;;;;;5.85;4.85;;;;;;;;;;5015084;28;20299;-57
2022/08/29 03:13:09;;;;;;;5.63;4.78;;;;;;;;;;5015330;28;20205;-56
2022/08/29 03:15:37;;;;;;;5.80;4.82;;;;;;;;;;5015412;28;20201;-52
2022/08/29 03:18:04;;;;;;;7.43;5.13;;;;;;;;;;5015161;28;20240;-53
2022/08/29 03:20:33;;;;;;;6.90;5.18;;;;;;;;;;5014871;28;20626;-54
2022/08/29 03:23:00;;;;;;;6.32;5.15;;;;;;;;;;5015017;28;20222;-56
2022/08/29 03:25:28;;;;;;;6.07;4.75;;;;;;;;;;5014997;28;20201;-55
2022/08/29 03:27:55;;;;;;;5.28;4.78;;;;;;;;;;5014767;28;20639;-55
2022/08/29 03:30:22;;;;;;;6.47;5.40;;;;;;;;;;5014861;28;20225;-55
2022/08/29 03:32:50;;;;;;;6.75;5.25;;;;;;;;;;5014722;28;20212;-56
2022/08/29 03:35:18;;;;;;;6.40;5.30;;;;;;;;;;5014994;28;20207;-57
2022/08/29 03:37:45;;;;;;;6.97;5.15;;;;;;;;;;5014731;28;20209;-53
2022/08/29 03:40:12;;;;;;;8.65;5.55;;;;;;;;;;5014926;28;20201;-55
2022/08/29 03:42:41;;;;;;;10.63;6.47;;;;;;;;;;5014779;28;20201;-56
2022/08/29 03:45:10;;;;;;;7.63;5.75;;;;;;;;;;5017027;28;20618;-50
2022/08/29 03:47:38;;;;;;;7.10;5.57;;;;;;;;;;5018611;28;20197;-56
2022/08/29 03:50:05;;;;;;;7.40;5.75;;;;;;;;;;5018541;28;20233;-54
2022/08/29 03:52:32;;;;;;;6.50;5.55;;;;;;;;;;5018861;28;20213;-57
2022/08/29 03:54:59;;;;;;;7.10;6.10;;;;;;;;;;5018756;28;20209;-52
2022/08/29 03:57:27;;;;;;;10.57;5.97;;;;;;;;;;5018804;28;20205;-56
2022/08/29 03:59:57;;;;;;;6.00;5.32;;;;;;;;;;5018510;28;20541;-55
2022/08/29 04:02:24;;;;;;;6.25;5.40;;;;;;;;;;5018675;28;20283;-55
2022/08/29 04:05:05;;;;;;;7.68;5.88;;;;;;;;;;5019002;28;20259;-56
2022/08/29 04:07:42;;;;;;;8.70;4.97;;;;;;;;;;5032009;28;20264;-56
2022/08/29 04:10:12;;;;;;;8.05;5.25;;;;;;;;;;5034925;28;20265;-57
2022/08/29 04:12:40;;;;;;;7.20;5.80;;;;;;;;;;5025882;28;20202;-56
2022/08/29 04:15:07;;;;;;;7.95;5.85;;;;;;;;;;5021095;28;20201;-57
2022/08/29 04:17:35;;;;;;;8.88;6.20;;;;;;;;;;5014996;28;20677;-55
2022/08/29 04:20:04;;;;;;;7.85;6.00;;;;;;;;;;5039603;28;20227;-56
2022/08/29 04:22:34;;;;;;;9.25;6.45;;;;;;;;;;5037134;28;20224;-53
2022/08/29 04:25:05;;;;;;;7.60;6.07;;;;;;;;;;5033589;28;20659;-54
2022/08/29 04:27:32;;;;;;;8.77;6.25;;;;;;;;;;5017565;28;20296;-51
2022/08/29 04:29:59;;;;;;;13.98;6.57;;;;;;;;;;5036196;28;20260;-57
2022/08/29 04:32:26;;;;;;;9.55;6.50;;;;;;;;;;5036674;28;20225;-55
2022/08/29 04:34:57;;;;;;;7.43;6.65;;;;;;;;;;5037272;28;20243;-51
2022/08/29 04:37:24;;;;;;;7.80;6.75;;;;;;;;;;5037063;28;20566;-53
2022/08/29 04:39:51;;;;;;;12.50;6.97;;;;;;;;;;5037359;28;20693;-50
2022/08/29 04:42:18;;;;;;;9.23;6.93;;;;;;;;;;5036801;28;20228;-52
2022/08/29 04:44:47;;;;;;;11.65;6.63;;;;;;;;;;5037170;28;20221;-55
2022/08/29 04:47:14;;;;;;;8.30;5.95;;;;;;;;;;5036632;28;20216;-56
2022/08/29 04:49:41;;;;;;;10.40;6.60;;;;;;;;;;5037137;28;20229;-57
2022/08/29 04:52:09;;;;;;;12.15;6.82;;;;;;;;;;5036541;28;20228;-56
2022/08/29 04:54:36;;;;;;;9.57;7.22;;;;;;;;;;5036576;28;20240;-54
2022/08/29 04:57:03;;;;;;;8.60;6.97;;;;;;;;;;5034841;28;20670;-56
2022/08/29 04:59:31;;;;;;;9.88;7.03;;;;;;;;;;5036837;28;20220;-53
2022/08/29 05:01:59;;;;;;;12.93;6.75;;;;;;;;;;5035814;28;20236;-56
2022/08/29 05:04:26;;;;;;;8.57;6.88;;;;;;;;;;5037118;28;20220;-53
2022/08/29 05:06:53;;;;;;;8.30;6.85;;;;;;;;;;5036064;28;20225;-55
2022/08/29 05:09:20;;;;;;;10.13;6.50;;;;;;;;;;5036897;28;20232;-54
2022/08/29 05:11:48;;;;;;;10.02;7.10;;;;;;;;;;5036294;28;20242;-55
2022/08/29 05:14:14;;;;;;;9.25;6.65;;;;;;;;;;5036974;28;20752;-51
2022/08/29 05:16:41;;;;;;;10.82;7.25;;;;;;;;;;5036015;28;20299;-54
2022/08/29 05:19:09;;;;;;;11.40;7.40;;;;;;;;;;5037099;28;20249;-56
2022/08/29 05:21:38;;;;;;;8.55;6.75;;;;;;;;;;5036377;28;20532;-54
2022/08/29 05:24:08;;;;;;;11.27;7.22;;;;;;;;;;5029965;28;20229;-53
2022/08/29 05:26:38;;;;;;;13.10;7.50;;;;;;;;;;5024663;28;20657;-53
2022/08/29 05:29:07;;;;;;;8.35;6.85;;;;;;;;;;5026305;28;20220;-53
2022/08/29 05:31:39;;;;;;;12.15;7.25;;;;;;;;;;5023205;28;20720;-54
2022/08/29 05:34:10;;;;;;;9.23;7.38;;;;;;;;;;5024550;28;20283;-51
2022/08/29 05:36:57;;;;;;;11.30;8.07;;;;;;;;;;5025028;28;20217;-55
2022/08/29 05:39:24;;;;;;;8.32;6.50;;;;;;;;;;5021991;28;20268;-50
2022/08/29 05:41:55;;;;;;;10.30;7.90;;;;;;;;;;5023474;28;20225;-57
2022/08/29 05:44:22;;;;;;;9.45;7.32;;;;;;;;;;5025895;28;20228;-55
2022/08/29 05:46:49;;;;;;;10.75;7.97;;;;;;;;;;5024006;28;20231;-54
2022/08/29 05:49:16;;;;;;;11.52;8.02;;;;;;;;;;5023214;28;20588;-55
2022/08/29 05:51:43;;;;;;;10.10;7.07;;;;;;;;;;5020835;28;20598;-58
2022/08/29 05:54:10;;;;;;;9.43;7.45;;;;;;;;;;5025495;28;20967;-58
2022/08/29 05:56:37;;;;;;;10.38;7.60;;;;;;;;;;5024034;28;20216;-57
2022/08/29 05:59:04;;;;;;;9.00;7.55;;;;;;;;;;5036824;28;20339;-58
2022/08/29 06:01:32;;;;;;;12.40;7.63;;;;;;;;;;5021637;28;20221;-58
2022/08/29 06:04:00;;;;;;;9.82;7.32;;;;;;;;;;5024864;28;20233;-58
2022/08/29 06:06:28;;;;;;;9.90;7.40;;;;;;;;;;5019647;28;20221;-58
2022/08/29 06:08:56;;;;;;;9.10;7.63;;;;;;;;;;5024861;28;20218;-58
2022/08/29 06:11:26;;;;;;;7.85;6.75;;;;;;;;;;5022121;28;20233;-57
2022/08/29 06:13:53;;;;;;;9.70;6.78;;;;;;;;;;5022313;28;20221;-57
2022/08/29 06:16:22;;;;;;;9.40;7.03;;;;;;;;;;5022433;28;20601;-57
2022/08/29 06:18:50;;;;;;;10.25;6.90;;;;;;;;;;5026284;28;20225;-58
2022/08/29 06:21:17;;;;;;;9.98;7.13;;;;;;;;;;5022539;28;20739;-57
2022/08/29 06:23:44;;;;;;;9.73;7.28;;;;;;;;;;5024938;28;20204;-58
2022/08/29 06:26:12;;;;;;;10.75;7.63;;;;;;;;;;5003812;28;20205;-58
2022/08/29 06:28:45;;;;;;;9.82;7.63;;;;;;;;;;5023275;28;20204;-52
2022/08/29 06:31:20;;;;;;;8.90;7.40;;;;;;;;;;5006079;28;20217;-57
2022/08/29 06:33:50;;;;;;;10.45;8.50;;;;;;;;;;5020696;28;20516;-58
2022/08/29 06:36:17;;;;;;;10.77;8.00;;;;;;;;;;5023723;28;20200;-57
2022/08/29 06:38:44;;;;;;;9.80;8.52;;;;;;;;;;5021819;28;20233;-58
2022/08/29 06:41:15;;;;;;;11.65;9.07;;;;;;;;;;5023403;28;20716;-57
2022/08/29 06:43:42;;;;;;;10.35;8.20;;;;;;;;;;5022994;28;20208;-58
2022/08/29 06:46:19;;;;;;;13.32;9.00;;;;;;;;;;5023617;28;20227;-57
2022/08/29 06:48:47;;;;;;;19.08;9.23;;;;;;;;;;5017441;28;20665;-57
2022/08/29 06:51:14;;;;;;;12.70;10.25;;;;;;;;;;5018389;28;20213;-56
2022/08/29 06:53:41;;;;;;;16.50;11.55;;;;;;;;;;5004281;28;20204;-56
2022/08/29 06:56:08;;;;;;;14.48;10.80;;;;;;;;;;5019108;28;20205;-58
2022/08/29 06:58:37;;;;;;;15.82;10.93;;;;;;;;;;5021900;28;20224;-58
2022/08/29 07:01:07;;;;;;;15.13;10.93;;;;;;;;;;5022052;28;20201;-56
2022/08/29 07:03:35;;;;;;;16.58;12.15;;;;;;;;;;5030062;28;20197;-58
2022/08/29 07:06:02;;;;;;;13.73;11.88;;;;;;;;;;5026804;28;20200;-58
2022/08/29 07:08:30;;;;;;;14.75;12.48;;;;;;;;;;5034866;28;20219;-57
2022/08/29 07:10:57;;;;;;;14.93;12.82;;;;;;;;;;5028247;28;20279;-57
2022/08/29 07:13:24;;;;;;;16.27;12.93;;;;;;;;;;5021888;28;20205;-58
2022/08/29 07:15:51;;;;;;;16.38;12.20;;;;;;;;;;5022102;28;20347;-57
2022/08/29 07:18:18;;;;;;;15.27;12.43;;;;;;;;;;5022980;28;20204;-57
2022/08/29 07:20:45;;;;;;;15.77;12.20;;;;;;;;;;5023323;28;20528;-58
2022/08/29 07:23:12;;;;;;;14.55;11.82;;;;;;;;;;5021932;28;20197;-57
2022/08/29 07:25:40;;;;;;;18.10;12.60;;;;;;;;;;5021138;28;20255;-57
2022/08/29 07:28:07;;;;;;;16.92;12.65;;;;;;;;;;5022355;28;20212;-58
2022/08/29 07:30:36;;;;;;;17.85;12.07;;;;;;;;;;5022747;28;20232;-57
2022/08/29 07:33:03;;;;;;;15.27;12.13;;;;;;;;;;5022815;28;20215;-58
2022/08/29 07:35:30;;;;;;;16.95;13.45;;;;;;;;;;5024010;28;20189;-57
2022/08/29 07:37:59;;;;;;;18.20;13.75;;;;;;;;;;5024131;28;20224;-58
2022/08/29 07:40:27;;;;;;;16.88;14.27;;;;;;;;;;5023859;28;20251;-57
2022/08/29 07:42:54;;;;;;;20.52;15.38;;;;;;;;;;5021529;28;20228;-57
2022/08/29 07:45:21;;;;;;;21.35;15.13;;;;;;;;;;5023014;28;20343;-58
2022/08/29 07:47:48;;;;;;;20.73;15.98;;;;;;;;;;5024131;28;20213;-57
2022/08/29 07:50:15;;;;;;;21.02;15.55;;;;;;;;;;5022236;28;20189;-58
2022/08/29 07:52:42;;;;;;;21.17;15.77;;;;;;;;;;5022772;28;20255;-57
2022/08/29 07:55:10;;;;;;;23.73;16.80;;;;;;;;;;5023589;28;20197;-58
2022/08/29 07:57:37;;;;;;;22.25;17.38;;;;;;;;;;5022549;28;20634;-58
2022/08/29 08:00:10;;;;;;;23.00;17.15;;;;;;;;;;5021871;28;20197;-58
2022/08/29 08:02:38;;;;;;;22.80;16.92;;;;;;;;;;5037037;28;20285;-57
2022/08/29 08:05:06;;;;;;;28.05;19.15;;;;;;;;;;5023433;28;20208;-57
2022/08/29 08:07:33;;;;;;;22.65;18.45;;;;;;;;;;5028257;28;20200;-58
2022/08/29 08:10:02;;;;;;;23.05;18.42;;;;;;;;;;5019348;28;20201;-57
2022/08/29 08:12:29;;;;;;;27.27;20.60;;;;;;;;;;5021420;28;20320;-57
2022/08/29 08:14:56;;;;;;;25.50;19.48;;;;;;;;;;5021716;28;20201;-56
2022/08/29 08:17:24;;;;;;;27.67;19.80;;;;;;;;;;5023949;28;20197;-57
2022/08/29 08:19:52;;;;;;;30.50;21.48;;;;;;;;;;5022715;28;20193;-55
2022/08/29 08:22:19;;;;;;;29.23;22.13;;;;;;;;;;5022438;28;20200;-57
2022/08/29 08:24:47;;;;;;;27.98;21.95;;;;;;;;;;5023431;28;20645;-58
2022/08/29 08:27:14;;;;;;;30.02;21.90;;;;;;;;;;5022889;28;20284;-58
2022/08/29 08:29:42;;;;;;;30.30;23.08;;;;;;;;;;5022000;28;20645;-57
2022/08/29 08:32:09;;;;;;;32.75;24.58;;;;;;;;;;5028206;28;20233;-56
2022/08/29 08:34:36;;;;;;;33.72;22.98;;;;;;;;;;5025315;28;20703;-54
2022/08/29 08:37:07;;;;;;;38.08;24.23;;;;;;;;;;5025765;28;20206;-57
2022/08/29 08:39:35;;;;;;;38.28;25.55;;;;;;;;;;5045387;28;20228;-55
2022/08/29 08:42:24;;;;;;;36.72;25.33;;;;;;;;;;5057285;28;20535;-56
2022/08/29 08:45:00;;;;;;;32.83;23.33;;;;;;;;;;5055914;28;20208;-55
2022/08/29 08:47:32;;;;;;;33.50;23.13;;;;;;;;;;5040288;28;20214;-55
2022/08/29 08:50:14;;;;;;;37.60;23.90;;;;;;;;;;5039789;28;20216;-55
2022/08/29 08:52:49;;;;;;;31.10;23.25;;;;;;;;;;5028159;28;20307;-49
2022/08/29 08:55:27;;;;;;;38.60;25.85;;;;;;;;;;5044907;28;20517;-56
2022/08/29 08:58:01;;;;;;;33.13;24.20;;;;;;;;;;5044841;28;20188;-57
2022/08/29 09:00:36;;;;;;;37.15;26.02;;;;;;;;;;5028909;28;20203;-57
2022/08/29 09:03:21;;;;;;;32.63;23.98;;;;;;;;;;5029798;28;20283;-54
2022/08/29 09:06:13;;;;;;;34.05;25.00;;;;;;;;;;4999273;28;20213;-55
2022/08/29 09:09:08;;;;;;;39.03;24.35;;;;;;;;;;4999869;28;20212;-54
2022/08/29 09:12:23;;;;;;;36.33;26.08;;;;;;;;;;5000292;28;20236;-55
2022/08/29 09:15:16;;;;;;;41.72;27.33;;;;;;;;;;4987796;28;20215;-58
2022/08/29 09:18:09;;;;;;;41.10;24.38;;;;;;;;;;5026714;28;20219;-58
2022/08/29 09:20:41;;;;;;;33.63;21.35;;;;;;;;;;5010739;28;20185;-57
2022/08/29 09:23:19;;;;;;;28.60;19.33;;;;;;;;;;5024702;28;20747;-58
2022/08/29 09:25:47;;;;;;;27.58;18.65;;;;;;;;;;5023630;28;21004;-57
2022/08/29 09:28:14;;;;;;;30.05;20.33;;;;;;;;;;5023869;28;20213;-59
2022/08/29 09:30:44;;;;;;;30.30;20.40;;;;;;;;;;5026141;28;20189;-59
2022/08/29 09:33:15;;;;;;;24.25;18.38;;;;;;;;;;5025641;28;20266;-57
2022/08/29 09:35:50;;;;;;;24.48;16.75;;;;;;;;;;5046181;28;20506;-59
2022/08/29 09:38:20;;;;;;;20.67;15.05;;;;;;;;;;5043534;28;20253;-59
2022/08/29 09:40:55;;;;;;;18.33;13.88;;;;;;;;;;5045741;28;21164;-57
2022/08/29 09:43:23;;;;;;;19.00;13.40;;;;;;;;;;5043127;28;20185;-58
2022/08/29 09:46:06;;;;;;;14.63;11.45;;;;;;;;;;5048735;28;20204;-57
2022/08/29 09:48:39;;;;;;;15.73;11.05;;;;;;;;;;5047279;28;20585;-57
2022/08/29 09:51:10;;;;;;;13.57;10.25;;;;;;;;;;5041988;28;20269;-58
2022/08/29 09:53:38;;;;;;;13.82;9.27;;;;;;;;;;5043229;28;20205;-57
2022/08/29 09:56:08;;;;;;;11.40;10.23;;;;;;;;;;5042944;28;20197;-58
2022/08/29 09:58:38;;;;;;;12.90;9.77;;;;;;;;;;5027859;28;20239;-56
2022/08/29 10:01:16;;;;;;;14.07;10.25;;;;;;;;;;5043781;28;20219;-56
2022/08/29 10:03:55;;;;;;;12.80;9.88;;;;;;;;;;5045275;28;20193;-56
2022/08/29 10:06:25;;;;;;;13.45;9.38;;;;;;;;;;5045466;28;20189;-58
2022/08/29 10:09:04;;;;;;;10.75;8.95;;;;;;;;;;5041956;28;20188;-59
2022/08/29 10:12:11;;;;;;;10.27;7.95;;;;;;;;;;5039941;28;20220;-59
2022/08/29 10:14:48;;;;;;;8.40;7.40;;;;;;;;;;4974679;28;20205;-58
2022/08/29 10:20:10;;;;;;;8.35;6.65;;;;;;;;;;4970419;28;20197;-58
2022/08/29 10:22:49;;;;;;;8.52;6.88;;;;;;;;;;4988572;28;20710;-59
2022/08/29 10:25:35;;;;;;;9.82;7.82;;;;;;;;;;4986031;28;20194;-59
2022/08/29 10:28:31;;;;;;;8.93;6.95;;;;;;;;;;4987070;28;20478;-58
2022/08/29 10:31:09;;;;;;;7.50;6.80;;;;;;;;;;4982458;28;20202;-58
2022/08/29 10:33:39;;;;;;;7.60;6.20;;;;;;;;;;4983317;28;20195;-58
2022/08/29 10:36:14;;;;;;;9.40;6.50;;;;;;;;;;4977973;28;20199;-58
2022/08/29 10:38:54;;;;;;;5.22;4.65;;;;;;;;;;4979596;28;20229;-59
2022/08/29 10:41:49;;;;;;;5.80;4.18;;;;;;;;;;4982584;28;20226;-59
2022/08/29 10:44:19;;;;;;;6.10;4.50;;;;;;;;;;4993771;28;20208;-59
2022/08/29 10:46:55;;;;;;;7.63;5.65;;;;;;;;;;4987191;28;20536;-59
2022/08/29 10:49:38;;;;;;;6.18;4.82;;;;;;;;;;4992134;28;20192;-58
2022/08/29 10:52:16;;;;;;;6.05;5.07;;;;;;;;;;5042892;28;20231;-59
2022/08/29 10:55:05;;;;;;;8.63;7.15;;;;;;;;;;5038720;28;20300;-59
2022/08/29 10:57:35;;;;;;;7.20;5.47;;;;;;;;;;5033563;28;20216;-59
2022/08/29 11:00:35;;;;;;;6.22;4.65;;;;;;;;;;5034224;28;20282;-58
2022/08/29 11:03:23;;;;;;;3.53;2.63;;;;;;;;;;5031427;28;20295;-58
2022/08/29 11:06:02;;;;;;;3.60;3.00;;;;;;;;;;5034204;28;20307;-58
2022/08/29 11:08:36;;;;;;;6.55;3.80;;;;;;;;;;5034898;28;20196;-58
2022/08/29 11:11:04;;;;;;;4.28;3.22;;;;;;;;;;5034089;28;20648;-58
2022/08/29 11:13:38;;;;;;;5.90;3.60;;;;;;;;;;5034348;28;20232;-58
2022/08/29 11:16:35;;;;;;;8.98;3.42;;;;;;;;;;5034340;28;20195;-57
2022/08/29 11:19:14;;;;;;;4.25;3.10;;;;;;;;;;5033958;28;20254;-58
2022/08/29 11:21:54;;;;;;;3.55;2.85;;;;;;;;;;5034887;28;20259;-58
2022/08/29 11:24:25;;;;;;;8.02;4.55;;;;;;;;;;5033238;28;20196;-59
2022/08/29 11:27:21;;;;;;;7.18;4.70;;;;;;;;;;5018374;28;20200;-58
2022/08/29 11:30:01;;;;;;;8.48;3.97;;;;;;;;;;5014280;28;20216;-59
2022/08/29 11:32:37;;;;;;;7.20;5.40;;;;;;;;;;5034156;28;20274;-59
2022/08/29 11:35:21;;;;;;;4.75;4.28;;;;;;;;;;5015876;28;20212;-59
2022/08/29 11:38:09;;;;;;;7.25;5.20;;;;;;;;;;5034339;28;20188;-58
2022/08/29 11:40:52;;;;;;;6.25;5.00;;;;;;;;;;5034944;28;20189;-58
2022/08/29 11:43:42;;;;;;;10.02;4.95;;;;;;;;;;5034313;28;20553;-58
2022/08/29 11:46:11;;;;;;;5.15;4.63;;;;;;;;;;5034318;28;20212;-58
2022/08/29 11:48:46;;;;;;;7.03;4.57;;;;;;;;;;5017556;28;20520;-58
2022/08/29 11:51:36;;;;;;;6.13;4.95;;;;;;;;;;5047937;28;20200;-58
2022/08/29 11:54:25;;;;;;;5.70;4.93;;;;;;;;;;5053540;28;20229;-58
2022/08/29 11:57:01;;;;;;;6.85;4.97;;;;;;;;;;5054101;28;20636;-59
2022/08/29 11:59:55;;;;;;;7.65;4.60;;;;;;;;;;5054339;28;20192;-58
2022/08/29 12:02:31;;;;;;;7.25;6.03;;;;;;;;;;5053776;28;20204;-59
2022/08/29 12:05:03;;;;;;;8.35;6.25;;;;;;;;;;5052658;28;20196;-59
2022/08/29 12:07:48;;;;;;;7.60;5.95;;;;;;;;;;5058268;28;20531;-59
2022/08/29 12:10:22;;;;;;;7.50;6.43;;;;;;;;;;5057008;28;20283;-60
2022/08/29 12:13:09;;;;;;;8.93;6.80;;;;;;;;;;5057771;28;20222;-59
2022/08/29 12:15:37;;;;;;;12.48;6.80;;;;;;;;;;5057839;28;20295;-59
2022/08/29 12:18:08;;;;;;;9.98;7.65;;;;;;;;;;5058031;28;20218;-59
2022/08/29 12:20:39;;;;;;;8.63;7.28;;;;;;;;;;5058013;28;20212;-59
2022/08/29 12:23:09;;;;;;;10.75;7.63;;;;;;;;;;5057421;28;20640;-59
2022/08/29 12:25:43;;;;;;;14.50;8.38;;;;;;;;;;5057212;28;20185;-59
2022/08/29 12:28:19;;;;;;;10.70;8.45;;;;;;;;;;5056793;28;20184;-59
2022/08/29 12:30:49;;;;;;;10.82;7.93;;;;;;;;;;5056850;28;20536;-58
2022/08/29 12:33:42;;;;;;;10.77;8.25;;;;;;;;;;5057767;28;20220;-58
2022/08/29 12:36:26;;;;;;;12.77;8.95;;;;;;;;;;5056687;28;20286;-59
2022/08/29 12:38:59;;;;;;;10.55;8.77;;;;;;;;;;5066408;28;20247;-59
2022/08/29 12:41:36;;;;;;;10.18;8.40;;;;;;;;;;5051492;28;20240;-59
2022/08/29 12:44:10;;;;;;;10.05;8.85;;;;;;;;;;5027677;28;20224;-59
2022/08/29 12:46:40;;;;;;;14.60;9.20;;;;;;;;;;5039070;28;20224;-58
2022/08/29 12:49:07;;;;;;;21.40;15.98;;;;;;;;;;5056002;28;20220;-58
2022/08/29 12:51:40;;;;;;;12.45;10.77;;;;;;;;;;5056270;28;20231;-59
2022/08/29 12:54:09;;;;;;;16.35;11.05;;;;;;;;;;5056840;28;20228;-58
2022/08/29 12:56:41;;;;;;;11.32;9.13;;;;;;;;;;5035211;28;20224;-58
2022/08/29 12:59:16;;;;;;;13.00;9.60;;;;;;;;;;5037191;28;20544;-58
2022/08/29 13:01:48;;;;;;;12.90;9.73;;;;;;;;;;5036370;28;20239;-59
2022/08/29 13:04:19;;;;;;;13.57;9.27;;;;;;;;;;5034877;28;20666;-58
2022/08/29 13:07:04;;;;;;;12.13;8.98;;;;;;;;;;5039552;28;20228;-58
2022/08/29 13:09:40;;;;;;;11.10;8.80;;;;;;;;;;5035849;28;20230;-60
2022/08/29 13:12:15;;;;;;;11.73;8.82;;;;;;;;;;5036433;28;20680;-59
2022/08/29 13:15:04;;;;;;;12.80;9.48;;;;;;;;;;5036557;28;20238;-56
2022/08/29 13:17:38;;;;;;;15.15;10.18;;;;;;;;;;5053532;28;20216;-58
2022/08/29 13:20:36;;;;;;;12.90;9.80;;;;;;;;;;5053641;28;20318;-59
2022/08/29 13:23:11;;;;;;;13.65;9.18;;;;;;;;;;5053071;28;20593;-58
2022/08/29 13:26:01;;;;;;;11.43;9.18;;;;;;;;;;5046401;28;20232;-56
2022/08/29 13:28:49;;;;;;;13.55;8.95;;;;;;;;;;5042742;28;20680;-56
2022/08/29 13:31:17;;;;;;;10.93;8.23;;;;;;;;;;5044001;28;20220;-56
2022/08/29 13:33:44;;;;;;;12.10;8.10;;;;;;;;;;5043162;28;20589;-56
2022/08/29 13:36:46;;;;;;;9.77;8.35;;;;;;;;;;5035786;28;20232;-59
2022/08/29 13:39:16;;;;;;;11.68;8.02;;;;;;;;;;5046807;28;20236;-58
2022/08/29 13:41:56;;;;;;;10.57;8.38;;;;;;;;;;5035192;28;20235;-58
2022/08/29 13:44:45;;;;;;;12.18;8.73;;;;;;;;;;5035153;28;20654;-58
2022/08/29 13:47:17;;;;;;;13.27;9.05;;;;;;;;;;5007722;28;20733;-58
2022/08/29 13:49:45;;;;;;;10.75;8.52;;;;;;;;;;5033703;28;20235;-57
2022/08/29 13:52:12;;;;;;;12.65;7.80;;;;;;;;;;5033862;28;20290;-56
2022/08/29 13:54:41;;;;;;;14.43;7.70;;;;;;;;;;5033587;28;20233;-53
2022/08/29 13:57:18;;;;;;;8.77;6.85;;;;;;;;;;5033793;28;20224;-50
2022/08/29 13:59:46;;;;;;;8.13;5.45;;;;;;;;;;5033954;28;20231;-55
2022/08/29 14:02:13;;;;;;;9.10;6.10;;;;;;;;;;5033655;28;20227;-53
2022/08/29 14:04:47;;;;;;;8.57;6.22;;;;;;;;;;5035313;28;20243;-55
2022/08/29 14:07:18;;;;;;;8.10;5.18;;;;;;;;;;5035330;28;20220;-53
2022/08/29 14:09:45;;;;;;;9.15;4.82;;;;;;;;;;5033827;28;20700;-52
2022/08/29 14:12:13;;;;;;;8.73;4.97;;;;;;;;;;5039096;28;20590;-56
2022/08/29 14:14:41;;;;;;;8.90;4.78;;;;;;;;;;5062267;28;20220;-48
2022/08/29 14:17:09;;;;;;;8.05;4.97;;;;;;;;;;5074678;28;20219;-53
2022/08/29 14:19:44;;;;;;;7.88;4.55;;;;;;;;;;5067411;28;20675;-50
2022/08/29 14:22:11;;;;;;;8.52;5.00;;;;;;;;;;5054758;28;20231;-49
2022/08/29 14:24:39;;;;;;;6.50;5.10;;;;;;;;;;5054764;28;20225;-52
2022/08/29 14:27:07;;;;;;;8.02;4.78;;;;;;;;;;5054560;28;20231;-54
2022/08/29 14:29:34;;;;;;;6.90;4.32;;;;;;;;;;5054255;28;20676;-55
2022/08/29 14:32:02;;;;;;;6.28;4.30;;;;;;;;;;5054355;28;20614;-55
2022/08/29 14:34:30;;;;;;;11.35;4.25;;;;;;;;;;5054491;28;20615;-56
2022/08/29 14:37:01;;;;;;;6.13;4.13;;;;;;;;;;5045212;28;20600;-52
2022/08/29 14:39:29;;;;;;;4.97;3.78;;;;;;;;;;5054636;28;20232;-53
2022/08/29 14:41:56;;;;;;;7.15;4.55;;;;;;;;;;5037136;28;20233;-49
2022/08/29 14:44:23;;;;;;;7.55;4.53;;;;;;;;;;5035040;28;20221;-52
2022/08/29 14:46:50;;;;;;;9.32;4.70;;;;;;;;;;5034390;28;20558;-55
2022/08/29 14:49:18;;;;;;;9.02;4.25;;;;;;;;;;5034662;28;20309;-50
2022/08/29 14:51:45;;;;;;;7.93;4.75;;;;;;;;;;5046571;28;20255;-56
2022/08/29 14:54:12;;;;;;;7.25;4.50;;;;;;;;;;5053451;28;20232;-56
2022/08/29 14:56:41;;;;;;;8.98;4.35;;;;;;;;;;5052234;28;20657;-57
2022/08/29 14:59:21;;;;;;;6.15;4.38;;;;;;;;;;5037874;28;20188;-56
2022/08/29 15:01:48;;;;;;;6.55;4.78;;;;;;;;;;5054636;28;20204;-56
2022/08/29 15:04:24;;;;;;;9.40;4.38;;;;;;;;;;5042387;28;20240;-56
2022/08/29 15:07:08;;;;;;;9.32;4.20;;;;;;;;;;5053811;28;20560;-49